sensor_id;sensor_type;location;lat;lon;timestamp;P1;durP1;ratioP1;P2;durP2;ratioP2
71878;SDS011;59755;43.834;4.364;2022-09-03T00:00:03;11.23;;;6.10;;
71878;SDS011;59755;43.834;4.364;2022-09-03T00:02:46;8.73;;;5.88;;
71878;SDS011;59755;43.834;4.364;2022-09-03T00:08:30;10.27;;;5.68;;
71878;SDS011;59755;43.834;4.364;2022-09-03T00:13:43;10.15;;;5.90;;
71878;SDS011;59755;43.834;4.364;2022-09-03T00:16:20;10.15;;;5.65;;
71878;SDS011;59755;43.834;4.364;2022-09-03T00:18:49;9.05;;;6.00;;
71878;SDS011;59755;43.834;4.364;2022-09-03T00:21:25;9.68;;;5.80;;
71878;SDS011;59755;43.834;4.364;2022-09-03T00:24:09;10.30;;;6.10;;
71878;SDS011;59755;43.834;4.364;2022-09-03T00:26:37;10.80;;;6.10;;
71878;SDS011;59755;43.834;4.364;2022-09-03T00:29:18;8.02;;;5.82;;
71878;SDS011;59755;43.834;4.364;2022-09-03T00:31:48;9.80;;;6.07;;
71878;SDS011;59755;43.834;4.364;2022-09-03T00:34:22;10.50;;;6.03;;
71878;SDS011;59755;43.834;4.364;2022-09-03T00:37:00;12.07;;;6.63;;
71878;SDS011;59755;43.834;4.364;2022-09-03T00:39:27;10.90;;;6.68;;
71878;SDS011;59755;43.834;4.364;2022-09-03T00:41:57;11.07;;;6.25;;
71878;SDS011;59755;43.834;4.364;2022-09-03T00:52:40;11.00;;;6.80;;
71878;SDS011;59755;43.834;4.364;2022-09-03T01:00:40;11.25;;;6.30;;
71878;SDS011;59755;43.834;4.364;2022-09-03T01:03:25;12.20;;;6.78;;
71878;SDS011;59755;43.834;4.364;2022-09-03T01:06:21;9.98;;;7.07;;
71878;SDS011;59755;43.834;4.364;2022-09-03T01:09:02;11.48;;;7.03;;
71878;SDS011;59755;43.834;4.364;2022-09-03T01:30:55;14.30;;;6.90;;
71878;SDS011;59755;43.834;4.364;2022-09-03T01:50:06;10.02;;;7.20;;
71878;SDS011;59755;43.834;4.364;2022-09-03T01:55:27;10.07;;;7.13;;
71878;SDS011;59755;43.834;4.364;2022-09-03T01:58:05;11.70;;;7.93;;
71878;SDS011;59755;43.834;4.364;2022-09-03T02:00:37;12.15;;;7.57;;
71878;SDS011;59755;43.834;4.364;2022-09-03T02:03:06;14.93;;;7.43;;
71878;SDS011;59755;43.834;4.364;2022-09-03T02:05:34;12.52;;;8.38;;
71878;SDS011;59755;43.834;4.364;2022-09-03T02:10:28;10.75;;;7.22;;
71878;SDS011;59755;43.834;4.364;2022-09-03T02:13:09;11.98;;;7.40;;
71878;SDS011;59755;43.834;4.364;2022-09-03T02:15:42;11.95;;;7.47;;
71878;SDS011;59755;43.834;4.364;2022-09-03T02:18:21;11.18;;;7.43;;
71878;SDS011;59755;43.834;4.364;2022-09-03T02:20:53;11.35;;;7.55;;
71878;SDS011;59755;43.834;4.364;2022-09-03T02:23:20;10.38;;;7.00;;
71878;SDS011;59755;43.834;4.364;2022-09-03T02:25:49;9.35;;;6.68;;
71878;SDS011;59755;43.834;4.364;2022-09-03T02:28:19;11.98;;;7.03;;
71878;SDS011;59755;43.834;4.364;2022-09-03T02:30:45;9.57;;;7.10;;
71878;SDS011;59755;43.834;4.364;2022-09-03T02:33:12;9.88;;;6.95;;
71878;SDS011;59755;43.834;4.364;2022-09-03T02:35:39;13.52;;;7.72;;
71878;SDS011;59755;43.834;4.364;2022-09-03T02:38:16;11.90;;;7.55;;
71878;SDS011;59755;43.834;4.364;2022-09-03T02:40:46;9.77;;;6.95;;
71878;SDS011;59755;43.834;4.364;2022-09-03T02:43:13;13.13;;;7.60;;
71878;SDS011;59755;43.834;4.364;2022-09-03T02:45:47;11.52;;;7.15;;
71878;SDS011;59755;43.834;4.364;2022-09-03T02:48:17;10.02;;;7.68;;
71878;SDS011;59755;43.834;4.364;2022-09-03T02:50:47;11.73;;;7.63;;
71878;SDS011;59755;43.834;4.364;2022-09-03T02:53:13;12.57;;;7.30;;
71878;SDS011;59755;43.834;4.364;2022-09-03T02:55:39;9.93;;;7.53;;
71878;SDS011;59755;43.834;4.364;2022-09-03T02:58:05;11.73;;;7.43;;
71878;SDS011;59755;43.834;4.364;2022-09-03T03:00:32;10.35;;;7.22;;
71878;SDS011;59755;43.834;4.364;2022-09-03T03:02:59;11.02;;;7.20;;
71878;SDS011;59755;43.834;4.364;2022-09-03T03:05:32;9.45;;;7.05;;
71878;SDS011;59755;43.834;4.364;2022-09-03T03:08:07;9.85;;;6.70;;
71878;SDS011;59755;43.834;4.364;2022-09-03T03:10:33;10.98;;;6.68;;
71878;SDS011;59755;43.834;4.364;2022-09-03T03:12:59;11.07;;;6.93;;
71878;SDS011;59755;43.834;4.364;2022-09-03T03:15:25;9.23;;;6.60;;
71878;SDS011;59755;43.834;4.364;2022-09-03T03:17:54;10.77;;;6.38;;
71878;SDS011;59755;43.834;4.364;2022-09-03T03:20:21;8.80;;;6.22;;
71878;SDS011;59755;43.834;4.364;2022-09-03T03:22:46;11.02;;;6.50;;
71878;SDS011;59755;43.834;4.364;2022-09-03T03:25:12;11.52;;;6.20;;
71878;SDS011;59755;43.834;4.364;2022-09-03T03:27:38;10.05;;;6.78;;
71878;SDS011;59755;43.834;4.364;2022-09-03T03:30:06;11.25;;;6.72;;
71878;SDS011;59755;43.834;4.364;2022-09-03T03:32:34;13.95;;;7.25;;
71878;SDS011;59755;43.834;4.364;2022-09-03T03:35:00;10.68;;;6.50;;
71878;SDS011;59755;43.834;4.364;2022-09-03T03:37:27;14.20;;;7.05;;
71878;SDS011;59755;43.834;4.364;2022-09-03T03:39:52;12.27;;;7.22;;
71878;SDS011;59755;43.834;4.364;2022-09-03T03:42:18;11.18;;;7.10;;
71878;SDS011;59755;43.834;4.364;2022-09-03T03:44:44;10.27;;;7.00;;
71878;SDS011;59755;43.834;4.364;2022-09-03T03:47:09;10.98;;;6.93;;
71878;SDS011;59755;43.834;4.364;2022-09-03T03:49:36;9.05;;;6.68;;
71878;SDS011;59755;43.834;4.364;2022-09-03T03:52:02;11.23;;;7.47;;
71878;SDS011;59755;43.834;4.364;2022-09-03T03:54:28;11.20;;;7.25;;
71878;SDS011;59755;43.834;4.364;2022-09-03T03:56:54;10.88;;;6.93;;
71878;SDS011;59755;43.834;4.364;2022-09-03T03:59:20;10.90;;;7.05;;
71878;SDS011;59755;43.834;4.364;2022-09-03T04:01:46;10.82;;;7.60;;
71878;SDS011;59755;43.834;4.364;2022-09-03T04:04:14;9.43;;;7.35;;
71878;SDS011;59755;43.834;4.364;2022-09-03T04:06:40;11.48;;;7.40;;
71878;SDS011;59755;43.834;4.364;2022-09-03T04:09:06;9.50;;;7.30;;
71878;SDS011;59755;43.834;4.364;2022-09-03T04:11:32;11.20;;;7.45;;
71878;SDS011;59755;43.834;4.364;2022-09-03T04:13:57;11.35;;;7.68;;
71878;SDS011;59755;43.834;4.364;2022-09-03T04:16:24;10.18;;;7.22;;
71878;SDS011;59755;43.834;4.364;2022-09-03T04:18:51;10.85;;;7.40;;
71878;SDS011;59755;43.834;4.364;2022-09-03T04:21:21;10.10;;;7.50;;
71878;SDS011;59755;43.834;4.364;2022-09-03T04:23:48;11.27;;;7.63;;
71878;SDS011;59755;43.834;4.364;2022-09-03T04:26:19;11.07;;;6.95;;
71878;SDS011;59755;43.834;4.364;2022-09-03T04:28:47;10.77;;;7.50;;
71878;SDS011;59755;43.834;4.364;2022-09-03T04:31:14;11.70;;;7.35;;
71878;SDS011;59755;43.834;4.364;2022-09-03T04:33:41;9.95;;;7.53;;
71878;SDS011;59755;43.834;4.364;2022-09-03T04:38:38;12.40;;;8.18;;
71878;SDS011;59755;43.834;4.364;2022-09-03T04:41:06;9.90;;;7.28;;
71878;SDS011;59755;43.834;4.364;2022-09-03T04:43:33;11.45;;;7.47;;
71878;SDS011;59755;43.834;4.364;2022-09-03T04:45:59;11.25;;;7.20;;
71878;SDS011;59755;43.834;4.364;2022-09-03T04:48:27;10.85;;;6.78;;
71878;SDS011;59755;43.834;4.364;2022-09-03T04:50:54;11.95;;;7.15;;
71878;SDS011;59755;43.834;4.364;2022-09-03T04:53:29;10.15;;;6.63;;
71878;SDS011;59755;43.834;4.364;2022-09-03T04:55:55;10.65;;;7.28;;
71878;SDS011;59755;43.834;4.364;2022-09-03T04:58:21;11.75;;;7.45;;
71878;SDS011;59755;43.834;4.364;2022-09-03T05:00:47;11.30;;;6.97;;
71878;SDS011;59755;43.834;4.364;2022-09-03T05:03:13;11.57;;;6.57;;
71878;SDS011;59755;43.834;4.364;2022-09-03T05:05:38;9.13;;;6.43;;
71878;SDS011;59755;43.834;4.364;2022-09-03T05:08:04;11.95;;;6.88;;
71878;SDS011;59755;43.834;4.364;2022-09-03T05:10:31;10.10;;;6.82;;
71878;SDS011;59755;43.834;4.364;2022-09-03T05:12:58;10.30;;;6.10;;
71878;SDS011;59755;43.834;4.364;2022-09-03T05:15:25;11.85;;;6.55;;
71878;SDS011;59755;43.834;4.364;2022-09-03T05:17:54;12.02;;;6.60;;
71878;SDS011;59755;43.834;4.364;2022-09-03T05:20:21;15.25;;;7.20;;
71878;SDS011;59755;43.834;4.364;2022-09-03T05:22:47;9.73;;;6.18;;
71878;SDS011;59755;43.834;4.364;2022-09-03T05:25:12;8.38;;;5.78;;
71878;SDS011;59755;43.834;4.364;2022-09-03T05:27:38;8.68;;;5.63;;
71878;SDS011;59755;43.834;4.364;2022-09-03T05:30:04;8.80;;;5.93;;
71878;SDS011;59755;43.834;4.364;2022-09-03T05:32:30;9.15;;;5.68;;
71878;SDS011;59755;43.834;4.364;2022-09-03T05:34:56;11.43;;;6.13;;
71878;SDS011;59755;43.834;4.364;2022-09-03T05:37:22;9.75;;;5.53;;
71878;SDS011;59755;43.834;4.364;2022-09-03T05:39:48;10.15;;;5.90;;
71878;SDS011;59755;43.834;4.364;2022-09-03T05:42:14;9.45;;;5.38;;
71878;SDS011;59755;43.834;4.364;2022-09-03T05:44:39;10.38;;;5.82;;
71878;SDS011;59755;43.834;4.364;2022-09-03T05:47:05;9.05;;;5.90;;
71878;SDS011;59755;43.834;4.364;2022-09-03T05:49:31;8.88;;;5.93;;
71878;SDS011;59755;43.834;4.364;2022-09-03T05:51:56;9.90;;;5.78;;
71878;SDS011;59755;43.834;4.364;2022-09-03T05:54:22;10.90;;;6.32;;
71878;SDS011;59755;43.834;4.364;2022-09-03T05:56:48;9.77;;;5.95;;
71878;SDS011;59755;43.834;4.364;2022-09-03T05:59:14;9.85;;;6.10;;
71878;SDS011;59755;43.834;4.364;2022-09-03T06:01:41;11.75;;;5.97;;
71878;SDS011;59755;43.834;4.364;2022-09-03T06:04:12;10.80;;;5.65;;
71878;SDS011;59755;43.834;4.364;2022-09-03T06:06:43;9.90;;;6.30;;
71878;SDS011;59755;43.834;4.364;2022-09-03T06:09:14;10.90;;;6.00;;
71878;SDS011;59755;43.834;4.364;2022-09-03T06:11:42;10.80;;;6.00;;
71878;SDS011;59755;43.834;4.364;2022-09-03T06:14:09;9.57;;;5.93;;
71878;SDS011;59755;43.834;4.364;2022-09-03T06:16:37;12.48;;;5.97;;
71878;SDS011;59755;43.834;4.364;2022-09-03T06:19:05;9.43;;;5.85;;
71878;SDS011;59755;43.834;4.364;2022-09-03T06:21:35;9.40;;;5.93;;
71878;SDS011;59755;43.834;4.364;2022-09-03T06:24:07;11.73;;;6.03;;
71878;SDS011;59755;43.834;4.364;2022-09-03T06:26:36;12.50;;;6.55;;
71878;SDS011;59755;43.834;4.364;2022-09-03T06:29:04;9.57;;;6.18;;
71878;SDS011;59755;43.834;4.364;2022-09-03T06:31:30;11.52;;;6.75;;
71878;SDS011;59755;43.834;4.364;2022-09-03T06:33:56;11.32;;;6.00;;
71878;SDS011;59755;43.834;4.364;2022-09-03T06:36:22;10.50;;;6.45;;
71878;SDS011;59755;43.834;4.364;2022-09-03T06:38:51;11.10;;;6.38;;
71878;SDS011;59755;43.834;4.364;2022-09-03T06:41:19;11.13;;;6.57;;
71878;SDS011;59755;43.834;4.364;2022-09-03T06:43:51;8.95;;;6.20;;
71878;SDS011;59755;43.834;4.364;2022-09-03T06:46:21;9.70;;;6.28;;
71878;SDS011;59755;43.834;4.364;2022-09-03T06:48:48;12.50;;;6.35;;
71878;SDS011;59755;43.834;4.364;2022-09-03T06:51:24;9.88;;;6.07;;
71878;SDS011;59755;43.834;4.364;2022-09-03T06:53:52;11.13;;;6.40;;
71878;SDS011;59755;43.834;4.364;2022-09-03T06:56:23;10.40;;;6.00;;
71878;SDS011;59755;43.834;4.364;2022-09-03T06:58:51;9.93;;;5.60;;
71878;SDS011;59755;43.834;4.364;2022-09-03T07:01:22;7.97;;;5.27;;
71878;SDS011;59755;43.834;4.364;2022-09-03T07:03:56;9.70;;;5.90;;
71878;SDS011;59755;43.834;4.364;2022-09-03T07:06:24;11.20;;;6.47;;
71878;SDS011;59755;43.834;4.364;2022-09-03T07:08:51;11.18;;;6.05;;
71878;SDS011;59755;43.834;4.364;2022-09-03T07:11:18;9.95;;;5.90;;
71878;SDS011;59755;43.834;4.364;2022-09-03T07:13:48;8.35;;;6.13;;
71878;SDS011;59755;43.834;4.364;2022-09-03T07:16:19;11.18;;;6.35;;
71878;SDS011;59755;43.834;4.364;2022-09-03T07:18:46;13.52;;;6.80;;
71878;SDS011;59755;43.834;4.364;2022-09-03T07:21:18;9.05;;;5.72;;
71878;SDS011;59755;43.834;4.364;2022-09-03T07:23:45;9.82;;;6.10;;
71878;SDS011;59755;43.834;4.364;2022-09-03T07:26:14;8.50;;;5.60;;
71878;SDS011;59755;43.834;4.364;2022-09-03T07:28:41;9.00;;;5.63;;
71878;SDS011;59755;43.834;4.364;2022-09-03T07:31:14;13.25;;;7.05;;
71878;SDS011;59755;43.834;4.364;2022-09-03T07:33:49;14.98;;;7.18;;
71878;SDS011;59755;43.834;4.364;2022-09-03T07:36:19;11.48;;;6.85;;
71878;SDS011;59755;43.834;4.364;2022-09-03T07:38:46;11.90;;;7.05;;
71878;SDS011;59755;43.834;4.364;2022-09-03T07:41:12;11.57;;;6.90;;
71878;SDS011;59755;43.834;4.364;2022-09-03T07:43:42;12.85;;;6.65;;
71878;SDS011;59755;43.834;4.364;2022-09-03T07:46:13;10.45;;;6.40;;
71878;SDS011;59755;43.834;4.364;2022-09-03T07:48:48;9.57;;;5.93;;
71878;SDS011;59755;43.834;4.364;2022-09-03T07:51:22;9.75;;;5.68;;
71878;SDS011;59755;43.834;4.364;2022-09-03T07:53:51;11.20;;;5.90;;
71878;SDS011;59755;43.834;4.364;2022-09-03T07:56:18;9.52;;;5.78;;
71878;SDS011;59755;43.834;4.364;2022-09-03T07:58:45;8.55;;;5.57;;
71878;SDS011;59755;43.834;4.364;2022-09-03T08:01:12;10.63;;;6.53;;
71878;SDS011;59755;43.834;4.364;2022-09-03T08:03:43;10.57;;;6.30;;
71878;SDS011;59755;43.834;4.364;2022-09-03T08:06:13;10.30;;;6.00;;
71878;SDS011;59755;43.834;4.364;2022-09-03T08:08:40;13.35;;;6.32;;
71878;SDS011;59755;43.834;4.364;2022-09-03T08:13:37;8.82;;;5.82;;
71878;SDS011;59755;43.834;4.364;2022-09-03T08:16:08;9.18;;;5.72;;
71878;SDS011;59755;43.834;4.364;2022-09-03T08:18:36;9.68;;;5.15;;
71878;SDS011;59755;43.834;4.364;2022-09-03T08:21:06;8.80;;;5.40;;
71878;SDS011;59755;43.834;4.364;2022-09-03T08:23:37;8.88;;;5.15;;
71878;SDS011;59755;43.834;4.364;2022-09-03T08:26:04;8.57;;;4.90;;
71878;SDS011;59755;43.834;4.364;2022-09-03T08:28:31;7.03;;;4.55;;
71878;SDS011;59755;43.834;4.364;2022-09-03T08:31:03;8.55;;;5.05;;
71878;SDS011;59755;43.834;4.364;2022-09-03T08:33:35;8.65;;;4.82;;
71878;SDS011;59755;43.834;4.364;2022-09-03T08:36:03;10.13;;;4.75;;
71878;SDS011;59755;43.834;4.364;2022-09-03T08:38:31;6.72;;;4.53;;
71878;SDS011;59755;43.834;4.364;2022-09-03T08:49:04;6.97;;;4.43;;
71878;SDS011;59755;43.834;4.364;2022-09-03T08:51:34;9.20;;;4.60;;
71878;SDS011;59755;43.834;4.364;2022-09-03T08:54:03;7.03;;;4.18;;
71878;SDS011;59755;43.834;4.364;2022-09-03T08:56:31;7.03;;;4.80;;
71878;SDS011;59755;43.834;4.364;2022-09-03T08:59:02;7.38;;;4.30;;
71878;SDS011;59755;43.834;4.364;2022-09-03T09:01:33;7.47;;;4.30;;
71878;SDS011;59755;43.834;4.364;2022-09-03T09:07:06;7.65;;;4.50;;
71878;SDS011;59755;43.834;4.364;2022-09-03T09:09:36;8.40;;;4.55;;
71878;SDS011;59755;43.834;4.364;2022-09-03T09:15:10;8.52;;;4.45;;
71878;SDS011;59755;43.834;4.364;2022-09-03T09:17:55;7.07;;;4.40;;
71878;SDS011;59755;43.834;4.364;2022-09-03T09:20:42;7.90;;;4.68;;
71878;SDS011;59755;43.834;4.364;2022-09-03T09:23:18;6.63;;;4.40;;
71878;SDS011;59755;43.834;4.364;2022-09-03T09:25:48;9.05;;;4.80;;
71878;SDS011;59755;43.834;4.364;2022-09-03T09:30:40;7.22;;;4.78;;
71878;SDS011;59755;43.834;4.364;2022-09-03T09:33:08;8.52;;;4.57;;
71878;SDS011;59755;43.834;4.364;2022-09-03T09:35:34;7.38;;;4.38;;
71878;SDS011;59755;43.834;4.364;2022-09-03T09:38:00;7.22;;;4.32;;
71878;SDS011;59755;43.834;4.364;2022-09-03T09:40:29;8.07;;;4.90;;
71878;SDS011;59755;43.834;4.364;2022-09-03T09:45:29;8.00;;;4.95;;
71878;SDS011;59755;43.834;4.364;2022-09-03T09:47:58;8.02;;;5.10;;
71878;SDS011;59755;43.834;4.364;2022-09-03T09:50:24;8.70;;;5.07;;
71878;SDS011;59755;43.834;4.364;2022-09-03T09:53:03;7.45;;;5.28;;
71878;SDS011;59755;43.834;4.364;2022-09-03T09:55:47;8.68;;;5.50;;
71878;SDS011;59755;43.834;4.364;2022-09-03T09:58:13;7.60;;;4.72;;
71878;SDS011;59755;43.834;4.364;2022-09-03T10:00:39;7.90;;;5.00;;
71878;SDS011;59755;43.834;4.364;2022-09-03T10:03:09;9.40;;;5.03;;
71878;SDS011;59755;43.834;4.364;2022-09-03T10:05:37;7.43;;;5.15;;
71878;SDS011;59755;43.834;4.364;2022-09-03T10:08:20;8.13;;;4.78;;
71878;SDS011;59755;43.834;4.364;2022-09-03T10:13:18;7.25;;;5.15;;
71878;SDS011;59755;43.834;4.364;2022-09-03T10:23:40;8.40;;;4.72;;
71878;SDS011;59755;43.834;4.364;2022-09-03T10:26:20;8.60;;;5.28;;
71878;SDS011;59755;43.834;4.364;2022-09-03T10:28:51;8.20;;;5.22;;
71878;SDS011;59755;43.834;4.364;2022-09-03T10:34:17;8.60;;;5.13;;
71878;SDS011;59755;43.834;4.364;2022-09-03T10:36:54;8.43;;;5.65;;
71878;SDS011;59755;43.834;4.364;2022-09-03T10:42:11;8.00;;;5.07;;
71878;SDS011;59755;43.834;4.364;2022-09-03T10:50:13;8.13;;;4.82;;
71878;SDS011;59755;43.834;4.364;2022-09-03T10:58:00;8.02;;;4.82;;
71878;SDS011;59755;43.834;4.364;2022-09-03T11:00:35;7.28;;;4.97;;
71878;SDS011;59755;43.834;4.364;2022-09-03T11:03:55;7.60;;;4.88;;
71878;SDS011;59755;43.834;4.364;2022-09-03T11:08:39;8.02;;;4.93;;
71878;SDS011;59755;43.834;4.364;2022-09-03T11:11:30;10.52;;;4.80;;
71878;SDS011;59755;43.834;4.364;2022-09-03T11:14:07;7.75;;;4.95;;
71878;SDS011;59755;43.834;4.364;2022-09-03T11:16:47;8.95;;;4.45;;
71878;SDS011;59755;43.834;4.364;2022-09-03T11:19:17;8.87;;;4.23;;
71878;SDS011;59755;43.834;4.364;2022-09-03T11:21:48;7.35;;;4.40;;
71878;SDS011;59755;43.834;4.364;2022-09-03T11:24:22;6.78;;;4.07;;
71878;SDS011;59755;43.834;4.364;2022-09-03T11:27:16;7.68;;;4.25;;
71878;SDS011;59755;43.834;4.364;2022-09-03T11:30:01;7.07;;;4.10;;
71878;SDS011;59755;43.834;4.364;2022-09-03T11:32:46;6.55;;;4.15;;
71878;SDS011;59755;43.834;4.364;2022-09-03T11:35:27;6.22;;;4.03;;
71878;SDS011;59755;43.834;4.364;2022-09-03T11:38:03;8.25;;;3.90;;
71878;SDS011;59755;43.834;4.364;2022-09-03T11:40:33;7.45;;;3.67;;
71878;SDS011;59755;43.834;4.364;2022-09-03T11:43:09;7.38;;;3.67;;
71878;SDS011;59755;43.834;4.364;2022-09-03T11:48:46;6.65;;;4.07;;
71878;SDS011;59755;43.834;4.364;2022-09-03T11:54:01;6.85;;;3.53;;
71878;SDS011;59755;43.834;4.364;2022-09-03T11:56:48;7.72;;;3.60;;
71878;SDS011;59755;43.834;4.364;2022-09-03T11:59:16;8.85;;;3.83;;
71878;SDS011;59755;43.834;4.364;2022-09-03T12:01:59;7.07;;;3.70;;
71878;SDS011;59755;43.834;4.364;2022-09-03T12:04:34;7.90;;;3.55;;
71878;SDS011;59755;43.834;4.364;2022-09-03T12:18:21;7.03;;;3.55;;
71878;SDS011;59755;43.834;4.364;2022-09-03T12:25:57;6.90;;;3.53;;
71878;SDS011;59755;43.834;4.364;2022-09-03T12:28:37;7.47;;;3.75;;
71878;SDS011;59755;43.834;4.364;2022-09-03T12:33:41;8.10;;;4.05;;
71878;SDS011;59755;43.834;4.364;2022-09-03T12:36:07;9.13;;;3.60;;
71878;SDS011;59755;43.834;4.364;2022-09-03T12:38:34;7.90;;;3.70;;
71878;SDS011;59755;43.834;4.364;2022-09-03T12:40:59;9.10;;;3.72;;
71878;SDS011;59755;43.834;4.364;2022-09-03T12:43:26;8.02;;;3.47;;
71878;SDS011;59755;43.834;4.364;2022-09-03T12:45:53;6.28;;;3.80;;
71878;SDS011;59755;43.834;4.364;2022-09-03T12:48:19;8.32;;;4.28;;
71878;SDS011;59755;43.834;4.364;2022-09-03T12:50:46;8.18;;;3.95;;
71878;SDS011;59755;43.834;4.364;2022-09-03T12:53:16;8.57;;;4.40;;
71878;SDS011;59755;43.834;4.364;2022-09-03T12:55:48;6.93;;;4.07;;
71878;SDS011;59755;43.834;4.364;2022-09-03T13:01:10;8.65;;;4.30;;
71878;SDS011;59755;43.834;4.364;2022-09-03T13:06:27;8.23;;;4.30;;
71878;SDS011;59755;43.834;4.364;2022-09-03T13:09:02;7.13;;;4.40;;
71878;SDS011;59755;43.834;4.364;2022-09-03T13:11:33;7.63;;;4.03;;
71878;SDS011;59755;43.834;4.364;2022-09-03T13:14:02;8.07;;;4.68;;
71878;SDS011;59755;43.834;4.364;2022-09-03T13:19:18;8.57;;;4.90;;
71878;SDS011;59755;43.834;4.364;2022-09-03T13:21:53;8.15;;;4.80;;
71878;SDS011;59755;43.834;4.364;2022-09-03T13:32:09;8.57;;;4.07;;
71878;SDS011;59755;43.834;4.364;2022-09-03T13:34:42;7.00;;;4.43;;
71878;SDS011;59755;43.834;4.364;2022-09-03T13:37:24;8.68;;;4.45;;
71878;SDS011;59755;43.834;4.364;2022-09-03T13:39:58;8.98;;;4.32;;
71878;SDS011;59755;43.834;4.364;2022-09-03T13:42:35;10.23;;;4.22;;
71878;SDS011;59755;43.834;4.364;2022-09-03T13:47:58;6.97;;;4.20;;
71878;SDS011;59755;43.834;4.364;2022-09-03T13:50:58;10.27;;;4.57;;
71878;SDS011;59755;43.834;4.364;2022-09-03T13:53:34;8.02;;;4.47;;
71878;SDS011;59755;43.834;4.364;2022-09-03T14:02:17;7.35;;;3.88;;
71878;SDS011;59755;43.834;4.364;2022-09-03T14:07:41;8.68;;;4.00;;
71878;SDS011;59755;43.834;4.364;2022-09-03T14:15:55;11.77;;;3.80;;
71878;SDS011;59755;43.834;4.364;2022-09-03T14:18:50;9.13;;;4.13;;
71878;SDS011;59755;43.834;4.364;2022-09-03T14:21:29;9.30;;;4.03;;
71878;SDS011;59755;43.834;4.364;2022-09-03T14:24:13;9.45;;;4.40;;
71878;SDS011;59755;43.834;4.364;2022-09-03T14:26:48;7.07;;;3.53;;
71878;SDS011;59755;43.834;4.364;2022-09-03T14:29:16;8.18;;;3.63;;
71878;SDS011;59755;43.834;4.364;2022-09-03T14:37:37;8.40;;;4.05;;
71878;SDS011;59755;43.834;4.364;2022-09-03T14:40:28;7.30;;;4.28;;
71878;SDS011;59755;43.834;4.364;2022-09-03T14:43:26;7.70;;;4.03;;
71878;SDS011;59755;43.834;4.364;2022-09-03T14:46:39;9.85;;;4.28;;
71878;SDS011;59755;43.834;4.364;2022-09-03T15:11:16;6.47;;;3.65;;
71878;SDS011;59755;43.834;4.364;2022-09-03T15:17:13;7.80;;;4.18;;
71878;SDS011;59755;43.834;4.364;2022-09-03T15:22:17;7.45;;;3.78;;
71878;SDS011;59755;43.834;4.364;2022-09-03T15:30:30;7.93;;;3.63;;
71878;SDS011;59755;43.834;4.364;2022-09-03T15:44:11;8.70;;;3.13;;
71878;SDS011;59755;43.834;4.364;2022-09-03T15:54:40;7.63;;;3.13;;
71878;SDS011;59755;43.834;4.364;2022-09-03T15:59:49;9.30;;;2.85;;
71878;SDS011;59755;43.834;4.364;2022-09-03T16:02:30;6.85;;;2.85;;
71878;SDS011;59755;43.834;4.364;2022-09-03T16:05:06;6.40;;;2.38;;
71878;SDS011;59755;43.834;4.364;2022-09-03T16:10:56;5.60;;;2.13;;
71878;SDS011;59755;43.834;4.364;2022-09-03T16:16:37;8.32;;;2.55;;
71878;SDS011;59755;43.834;4.364;2022-09-03T16:19:42;6.75;;;2.00;;
71878;SDS011;59755;43.834;4.364;2022-09-03T16:22:39;9.57;;;2.67;;
71878;SDS011;59755;43.834;4.364;2022-09-03T16:27:51;6.30;;;2.00;;
71878;SDS011;59755;43.834;4.364;2022-09-03T16:35:55;6.65;;;2.30;;
71878;SDS011;59755;43.834;4.364;2022-09-03T16:43:55;6.10;;;2.00;;
71878;SDS011;59755;43.834;4.364;2022-09-03T16:51:54;8.90;;;2.80;;
71878;SDS011;59755;43.834;4.364;2022-09-03T17:00:19;9.68;;;2.60;;
71878;SDS011;59755;43.834;4.364;2022-09-03T17:05:48;7.35;;;2.40;;
71878;SDS011;59755;43.834;4.364;2022-09-03T17:13:57;7.73;;;2.40;;
71878;SDS011;59755;43.834;4.364;2022-09-03T17:19:00;8.70;;;2.60;;
71878;SDS011;59755;43.834;4.364;2022-09-03T17:26:52;9.88;;;2.67;;
71878;SDS011;59755;43.834;4.364;2022-09-03T17:43:45;10.13;;;2.50;;
71878;SDS011;59755;43.834;4.364;2022-09-03T17:48:57;10.18;;;2.63;;
71878;SDS011;59755;43.834;4.364;2022-09-03T17:57:04;8.30;;;2.53;;
71878;SDS011;59755;43.834;4.364;2022-09-03T18:04:58;8.93;;;3.10;;
71878;SDS011;59755;43.834;4.364;2022-09-03T18:12:53;7.53;;;2.42;;
71878;SDS011;59755;43.834;4.364;2022-09-03T18:18:04;7.07;;;2.30;;
71878;SDS011;59755;43.834;4.364;2022-09-03T18:20:40;7.93;;;2.88;;
71878;SDS011;59755;43.834;4.364;2022-09-03T18:23:36;13.52;;;3.20;;
71878;SDS011;59755;43.834;4.364;2022-09-03T18:26:45;9.47;;;2.50;;
71878;SDS011;59755;43.834;4.364;2022-09-03T18:29:36;10.38;;;3.28;;
71878;SDS011;59755;43.834;4.364;2022-09-03T18:32:30;10.68;;;3.15;;
71878;SDS011;59755;43.834;4.364;2022-09-03T18:35:15;8.35;;;2.63;;
71878;SDS011;59755;43.834;4.364;2022-09-03T18:38:03;8.95;;;2.90;;
71878;SDS011;59755;43.834;4.364;2022-09-03T18:41:05;8.40;;;3.30;;
71878;SDS011;59755;43.834;4.364;2022-09-03T18:53:11;10.75;;;2.88;;
71878;SDS011;59755;43.834;4.364;2022-09-03T19:01:53;10.90;;;3.30;;
71878;SDS011;59755;43.834;4.364;2022-09-03T19:07:28;10.93;;;3.05;;
71878;SDS011;59755;43.834;4.364;2022-09-03T19:10:41;9.65;;;3.15;;
71878;SDS011;59755;43.834;4.364;2022-09-03T19:13:34;11.75;;;3.13;;
71878;SDS011;59755;43.834;4.364;2022-09-03T19:16:24;12.75;;;3.70;;
71878;SDS011;59755;43.834;4.364;2022-09-03T19:22:46;11.38;;;3.25;;
71878;SDS011;59755;43.834;4.364;2022-09-03T19:25:30;11.95;;;3.20;;
71878;SDS011;59755;43.834;4.364;2022-09-03T19:31:27;10.20;;;2.95;;
71878;SDS011;59755;43.834;4.364;2022-09-03T19:34:29;11.93;;;3.50;;
71878;SDS011;59755;43.834;4.364;2022-09-03T19:46:34;10.52;;;3.15;;
71878;SDS011;59755;43.834;4.364;2022-09-03T19:55:47;11.40;;;3.30;;
71878;SDS011;59755;43.834;4.364;2022-09-03T19:58:36;13.10;;;3.92;;
71878;SDS011;59755;43.834;4.364;2022-09-03T20:01:24;9.25;;;3.63;;
71878;SDS011;59755;43.834;4.364;2022-09-03T20:04:16;9.25;;;3.17;;
71878;SDS011;59755;43.834;4.364;2022-09-03T20:07:02;14.13;;;3.75;;
71878;SDS011;59755;43.834;4.364;2022-09-03T20:09:48;8.45;;;3.25;;
71878;SDS011;59755;43.834;4.364;2022-09-03T20:12:37;14.38;;;3.80;;
71878;SDS011;59755;43.834;4.364;2022-09-03T20:15:07;14.90;;;3.55;;
71878;SDS011;59755;43.834;4.364;2022-09-03T20:30:18;15.18;;;3.92;;
71878;SDS011;59755;43.834;4.364;2022-09-03T21:03:36;11.35;;;3.83;;
71878;SDS011;59755;43.834;4.364;2022-09-03T21:09:19;12.07;;;4.25;;
71878;SDS011;59755;43.834;4.364;2022-09-03T21:14:51;10.43;;;3.67;;
71878;SDS011;59755;43.834;4.364;2022-09-03T21:18:01;11.02;;;3.78;;
71878;SDS011;59755;43.834;4.364;2022-09-03T21:22:57;11.70;;;4.00;;
71878;SDS011;59755;43.834;4.364;2022-09-03T21:26:05;11.25;;;4.28;;
71878;SDS011;59755;43.834;4.364;2022-09-03T21:28:44;11.10;;;4.72;;
71878;SDS011;59755;43.834;4.364;2022-09-03T21:31:32;10.70;;;4.70;;
71878;SDS011;59755;43.834;4.364;2022-09-03T21:34:26;12.95;;;4.38;;
71878;SDS011;59755;43.834;4.364;2022-09-03T21:37:09;9.93;;;4.25;;
71878;SDS011;59755;43.834;4.364;2022-09-03T21:48:05;13.35;;;4.85;;
71878;SDS011;59755;43.834;4.364;2022-09-03T21:50:51;11.25;;;3.95;;
71878;SDS011;59755;43.834;4.364;2022-09-03T21:56:19;10.77;;;4.30;;
71878;SDS011;59755;43.834;4.364;2022-09-03T22:01:27;13.18;;;4.47;;
71878;SDS011;59755;43.834;4.364;2022-09-03T22:04:04;11.50;;;3.97;;
71878;SDS011;59755;43.834;4.364;2022-09-03T22:06:34;9.52;;;3.80;;
71878;SDS011;59755;43.834;4.364;2022-09-03T22:09:12;11.68;;;3.85;;
71878;SDS011;59755;43.834;4.364;2022-09-03T22:14:41;11.63;;;4.18;;
71878;SDS011;59755;43.834;4.364;2022-09-03T22:20:25;11.27;;;4.03;;
71878;SDS011;59755;43.834;4.364;2022-09-03T22:22:52;11.80;;;4.10;;
71878;SDS011;59755;43.834;4.364;2022-09-03T22:27:53;11.77;;;4.32;;